This is the latest recevied weather packets stored in our database for station/object XE1GMR. If no packets are shown the sender has not sent any weather packets the latest 10 day(s).
| Time | Temp. | Humidity | Pressure | Rain* | Wind** | Luminosity | Snow |
|---|---|---|---|---|---|---|---|
| 1778192998 | 27.78° C | 37% | 1119.1 hPa | 0 mm | - | 89 W/m² | - |
| 1778192695 | 28.33° C | 36% | 1119.2 hPa | 0 mm | - | 89 W/m² | - |
| 1778192391 | 30.56° C | 34% | 1119 hPa | 0 mm | - | 388 W/m² | - |
| 1778192088 | 31.67° C | 31% | 1118.6 hPa | 0 mm | - | 484 W/m² | - |
| 1778191785 | 31.67° C | 30% | 1118.3 hPa | 0 mm | - | 399 W/m² | - |
| 1778191482 | 31.67° C | 30% | 1118.2 hPa | 0 mm | - | 472 W/m² | - |
| 1778191179 | 32.22° C | 31% | 1118.3 hPa | 0 mm | - | 461 W/m² | - |
| 1778190875 | 32.22° C | 29% | 1118 hPa | 0 mm | - | 433 W/m² | - |
| 1778190573 | 31.67° C | 30% | 1118.2 hPa | 0 mm | - | 409 W/m² | - |
| 1778190271 | 31.67° C | 31% | 1118.2 hPa | 0 mm | - | 487 W/m² | - |
| 1778189966 | 31.67° C | 29% | 1118.2 hPa | 0 mm | - | 488 W/m² | - |
| 1778189662 | 31.67° C | 30% | 1118 hPa | 0 mm | - | 480 W/m² | - |
| 1778189359 | 31.67° C | 31% | 1118.4 hPa | 0 mm | - | 520 W/m² | - |
| 1778189055 | 32.22° C | 31% | 1118.3 hPa | 0 mm | - | 531 W/m² | - |
| 1778188752 | 32.22° C | 31% | 1118.4 hPa | 0 mm | - | 531 W/m² | - |
| 1778188448 | 31.67° C | 31% | 1118.4 hPa | 0 mm | - | 547 W/m² | - |
| 1778188145 | 31.11° C | 33% | 1118.7 hPa | 0 mm | - | 576 W/m² | - |
| 1778187843 | 30.56° C | 34% | 1118.7 hPa | 0 mm | - | 589 W/m² | - |
| 1778187539 | 31.67° C | 33% | 1118.7 hPa | 0 mm | - | 601 W/m² | - |
| 1778187236 | 31.67° C | 32% | 1118.7 hPa | 0 mm | - | 625 W/m² | - |
| 1778186927 | 31.11° C | 33% | 1118.9 hPa | 0 mm | - | 632 W/m² | - |
| 1778186624 | 31.11° C | 35% | 1119 hPa | 0 mm | - | 621 W/m² | - |
| 1778186321 | 30.56° C | 36% | 1119 hPa | 0 mm | - | 632 W/m² | - |
| 1778186020 | 30.56° C | 36% | 1119.2 hPa | 0 mm | - | 638 W/m² | - |
| 1778185715 | 30.56° C | 36% | 1119.2 hPa | 0 mm | - | 673 W/m² | - |
* Rain latest hour (hover to see other rain measurements)
** Current wind speed in m/s (hover to see current wind gust speed)